sensor_id;sensor_type;location;lat;lon;timestamp;P1;durP1;ratioP1;P2;durP2;ratioP2
76439;SDS011;65274;44.982;20.060;2023-10-13T07:49:11;43.55;;;26.52;;
76439;SDS011;65274;44.982;20.060;2023-10-13T07:52:05;53.55;;;25.55;;
76439;SDS011;65274;44.982;20.060;2023-10-13T07:54:58;33.63;;;24.65;;
76439;SDS011;65274;44.982;20.060;2023-10-13T07:57:35;41.33;;;26.70;;
76439;SDS011;65274;44.982;20.060;2023-10-13T08:00:18;35.45;;;21.73;;
76439;SDS011;65274;44.982;20.060;2023-10-13T08:03:02;32.95;;;23.40;;
76439;SDS011;65274;44.982;20.060;2023-10-13T08:05:45;38.17;;;21.70;;
76439;SDS011;65274;44.982;20.060;2023-10-13T08:08:22;33.03;;;22.75;;
76439;SDS011;65274;44.982;20.060;2023-10-13T08:10:51;29.58;;;20.80;;
76439;SDS011;65274;44.982;20.060;2023-10-13T08:13:21;24.60;;;18.35;;
76439;SDS011;65274;44.982;20.060;2023-10-13T08:15:47;32.93;;;18.70;;
76439;SDS011;65274;44.982;20.060;2023-10-13T08:18:14;27.77;;;19.27;;
76439;SDS011;65274;44.982;20.060;2023-10-13T08:21:02;37.28;;;20.05;;
76439;SDS011;65274;44.982;20.060;2023-10-13T08:23:29;32.17;;;19.50;;
76439;SDS011;65274;44.982;20.060;2023-10-13T08:26:14;30.70;;;19.60;;
76439;SDS011;65274;44.982;20.060;2023-10-13T08:28:57;28.60;;;20.23;;
76439;SDS011;65274;44.982;20.060;2023-10-13T08:31:44;33.90;;;20.33;;
76439;SDS011;65274;44.982;20.060;2023-10-13T08:34:32;34.22;;;19.88;;
76439;SDS011;65274;44.982;20.060;2023-10-13T08:37:07;31.67;;;20.38;;
76439;SDS011;65274;44.982;20.060;2023-10-13T08:39:49;35.60;;;23.05;;
76439;SDS011;65274;44.982;20.060;2023-10-13T08:45:19;37.33;;;22.77;;
76439;SDS011;65274;44.982;20.060;2023-10-13T08:48:06;40.05;;;23.98;;
76439;SDS011;65274;44.982;20.060;2023-10-13T08:50:38;45.92;;;25.23;;
76439;SDS011;65274;44.982;20.060;2023-10-13T08:53:27;33.97;;;20.50;;
76439;SDS011;65274;44.982;20.060;2023-10-13T08:58:27;29.80;;;18.85;;
76439;SDS011;65274;44.982;20.060;2023-10-13T09:01:13;29.05;;;21.10;;
76439;SDS011;65274;44.982;20.060;2023-10-13T09:04:00;28.58;;;18.50;;
76439;SDS011;65274;44.982;20.060;2023-10-13T09:06:46;28.98;;;17.77;;
76439;SDS011;65274;44.982;20.060;2023-10-13T09:09:17;31.30;;;17.90;;
76439;SDS011;65274;44.982;20.060;2023-10-13T09:11:55;37.35;;;17.10;;
76439;SDS011;65274;44.982;20.060;2023-10-13T09:14:35;23.30;;;16.38;;
76439;SDS011;65274;44.982;20.060;2023-10-13T09:17:04;27.85;;;17.10;;
76439;SDS011;65274;44.982;20.060;2023-10-13T09:19:50;27.33;;;15.20;;
76439;SDS011;65274;44.982;20.060;2023-10-13T09:22:26;25.73;;;16.55;;
76439;SDS011;65274;44.982;20.060;2023-10-13T09:24:59;29.35;;;24.00;;
76439;SDS011;65274;44.982;20.060;2023-10-13T09:27:26;29.05;;;22.85;;
76439;SDS011;65274;44.982;20.060;2023-10-13T09:29:55;32.75;;;18.75;;
76439;SDS011;65274;44.982;20.060;2023-10-13T09:32:24;36.42;;;22.58;;
76439;SDS011;65274;44.982;20.060;2023-10-13T09:40:59;30.55;;;21.80;;
76439;SDS011;65274;44.982;20.060;2023-10-13T09:43:43;29.02;;;22.25;;
76439;SDS011;65274;44.982;20.060;2023-10-13T09:46:10;25.30;;;15.15;;
76439;SDS011;65274;44.982;20.060;2023-10-13T09:48:46;23.52;;;15.52;;
76439;SDS011;65274;44.982;20.060;2023-10-13T09:51:13;24.77;;;16.25;;
76439;SDS011;65274;44.982;20.060;2023-10-13T09:53:40;23.23;;;16.88;;
76439;SDS011;65274;44.982;20.060;2023-10-13T09:56:10;20.02;;;14.10;;
76439;SDS011;65274;44.982;20.060;2023-10-13T09:58:45;19.83;;;12.02;;
76439;SDS011;65274;44.982;20.060;2023-10-13T10:01:12;15.88;;;11.63;;
76439;SDS011;65274;44.982;20.060;2023-10-13T10:03:46;26.50;;;12.27;;
76439;SDS011;65274;44.982;20.060;2023-10-13T10:06:23;18.52;;;11.65;;
76439;SDS011;65274;44.982;20.060;2023-10-13T10:08:58;19.00;;;11.57;;
76439;SDS011;65274;44.982;20.060;2023-10-13T10:17:46;13.38;;;9.27;;
76439;SDS011;65274;44.982;20.060;2023-10-13T10:20:15;20.33;;;9.77;;
76439;SDS011;65274;44.982;20.060;2023-10-13T10:22:55;20.35;;;11.82;;
76439;SDS011;65274;44.982;20.060;2023-10-13T10:25:33;16.77;;;10.35;;
76439;SDS011;65274;44.982;20.060;2023-10-13T10:28:06;17.33;;;9.63;;
76439;SDS011;65274;44.982;20.060;2023-10-13T10:30:36;18.23;;;9.55;;
76439;SDS011;65274;44.982;20.060;2023-10-13T10:33:07;18.73;;;8.80;;
76439;SDS011;65274;44.982;20.060;2023-10-13T10:35:43;14.90;;;8.85;;
76439;SDS011;65274;44.982;20.060;2023-10-13T10:38:10;15.80;;;9.25;;
76439;SDS011;65274;44.982;20.060;2023-10-13T10:40:57;16.30;;;10.45;;
76439;SDS011;65274;44.982;20.060;2023-10-13T10:43:27;15.77;;;10.00;;
76439;SDS011;65274;44.982;20.060;2023-10-13T10:45:54;15.75;;;9.70;;
76439;SDS011;65274;44.982;20.060;2023-10-13T10:48:25;16.85;;;10.10;;
76439;SDS011;65274;44.982;20.060;2023-10-13T10:50:57;15.38;;;9.98;;
76439;SDS011;65274;44.982;20.060;2023-10-13T10:53:31;14.30;;;10.18;;
76439;SDS011;65274;44.982;20.060;2023-10-13T10:56:24;12.93;;;9.75;;
76439;SDS011;65274;44.982;20.060;2023-10-13T10:59:06;19.95;;;9.88;;
76439;SDS011;65274;44.982;20.060;2023-10-13T11:01:44;13.45;;;9.45;;
76439;SDS011;65274;44.982;20.060;2023-10-13T11:04:16;20.42;;;10.40;;
76439;SDS011;65274;44.982;20.060;2023-10-13T11:06:52;18.38;;;9.43;;
76439;SDS011;65274;44.982;20.060;2023-10-13T11:09:38;15.48;;;8.65;;
76439;SDS011;65274;44.982;20.060;2023-10-13T11:17:59;18.65;;;9.30;;
76439;SDS011;65274;44.982;20.060;2023-10-13T11:20:30;16.75;;;9.07;;
76439;SDS011;65274;44.982;20.060;2023-10-13T11:23:14;16.98;;;8.45;;
76439;SDS011;65274;44.982;20.060;2023-10-13T11:25:41;16.55;;;7.78;;
76439;SDS011;65274;44.982;20.060;2023-10-13T11:28:14;18.08;;;8.57;;
76439;SDS011;65274;44.982;20.060;2023-10-13T11:31:07;18.38;;;7.88;;
76439;SDS011;65274;44.982;20.060;2023-10-13T11:33:43;18.75;;;8.40;;
76439;SDS011;65274;44.982;20.060;2023-10-13T11:36:12;14.93;;;8.27;;
76439;SDS011;65274;44.982;20.060;2023-10-13T11:41:17;14.27;;;7.57;;
76439;SDS011;65274;44.982;20.060;2023-10-13T11:43:51;16.88;;;7.75;;
76439;SDS011;65274;44.982;20.060;2023-10-13T11:46:21;16.60;;;8.18;;
76439;SDS011;65274;44.982;20.060;2023-10-13T11:49:01;15.52;;;7.72;;
76439;SDS011;65274;44.982;20.060;2023-10-13T11:51:59;20.25;;;8.32;;
76439;SDS011;65274;44.982;20.060;2023-10-13T11:54:55;17.65;;;8.32;;
76439;SDS011;65274;44.982;20.060;2023-10-13T11:57:21;12.23;;;6.97;;
76439;SDS011;65274;44.982;20.060;2023-10-13T11:59:47;11.18;;;7.50;;
76439;SDS011;65274;44.982;20.060;2023-10-13T12:02:21;13.57;;;6.82;;
76439;SDS011;65274;44.982;20.060;2023-10-13T12:04:50;16.40;;;7.28;;
76439;SDS011;65274;44.982;20.060;2023-10-13T12:07:17;19.23;;;7.30;;
76439;SDS011;65274;44.982;20.060;2023-10-13T12:09:53;12.10;;;7.90;;
76439;SDS011;65274;44.982;20.060;2023-10-13T12:12:29;9.63;;;7.45;;
76439;SDS011;65274;44.982;20.060;2023-10-13T12:15:06;11.50;;;7.45;;
76439;SDS011;65274;44.982;20.060;2023-10-13T12:17:41;16.13;;;8.13;;
76439;SDS011;65274;44.982;20.060;2023-10-13T12:20:12;15.68;;;9.90;;
76439;SDS011;65274;44.982;20.060;2023-10-13T12:23:00;14.13;;;7.80;;
76439;SDS011;65274;44.982;20.060;2023-10-13T12:25:40;13.57;;;8.35;;
76439;SDS011;65274;44.982;20.060;2023-10-13T12:28:25;16.70;;;8.20;;
76439;SDS011;65274;44.982;20.060;2023-10-13T12:31:03;17.00;;;7.20;;
76439;SDS011;65274;44.982;20.060;2023-10-13T12:33:56;17.27;;;8.80;;
76439;SDS011;65274;44.982;20.060;2023-10-13T12:36:46;15.38;;;9.95;;
76439;SDS011;65274;44.982;20.060;2023-10-13T12:39:34;12.15;;;7.13;;
76439;SDS011;65274;44.982;20.060;2023-10-13T12:45:03;18.88;;;8.55;;
76439;SDS011;65274;44.982;20.060;2023-10-13T12:47:54;16.83;;;7.35;;
76439;SDS011;65274;44.982;20.060;2023-10-13T12:53:24;16.67;;;9.18;;
76439;SDS011;65274;44.982;20.060;2023-10-13T13:04:40;19.17;;;9.30;;
76439;SDS011;65274;44.982;20.060;2023-10-13T13:10:21;21.85;;;8.65;;
76439;SDS011;65274;44.982;20.060;2023-10-13T13:13:02;21.25;;;8.43;;
76439;SDS011;65274;44.982;20.060;2023-10-13T13:15:31;11.20;;;7.75;;
76439;SDS011;65274;44.982;20.060;2023-10-13T13:18:00;21.90;;;7.90;;
76439;SDS011;65274;44.982;20.060;2023-10-13T13:20:35;15.70;;;9.40;;
76439;SDS011;65274;44.982;20.060;2023-10-13T13:23:04;14.40;;;10.25;;
76439;SDS011;65274;44.982;20.060;2023-10-13T13:27:58;13.50;;;8.60;;
76439;SDS011;65274;44.982;20.060;2023-10-13T13:30:29;16.38;;;8.90;;
76439;SDS011;65274;44.982;20.060;2023-10-13T13:32:59;18.83;;;8.95;;
76439;SDS011;65274;44.982;20.060;2023-10-13T13:38:41;21.70;;;10.35;;
76439;SDS011;65274;44.982;20.060;2023-10-13T13:41:13;16.45;;;10.20;;
76439;SDS011;65274;44.982;20.060;2023-10-13T13:43:43;15.80;;;10.73;;
76439;SDS011;65274;44.982;20.060;2023-10-13T13:46:15;25.80;;;10.38;;
76439;SDS011;65274;44.982;20.060;2023-10-13T13:48:42;22.13;;;9.55;;
76439;SDS011;65274;44.982;20.060;2023-10-13T13:51:08;22.92;;;10.50;;
76439;SDS011;65274;44.982;20.060;2023-10-13T13:53:40;24.08;;;10.23;;
76439;SDS011;65274;44.982;20.060;2023-10-13T13:56:10;19.52;;;10.85;;
76439;SDS011;65274;44.982;20.060;2023-10-13T13:58:36;23.90;;;12.02;;
76439;SDS011;65274;44.982;20.060;2023-10-13T14:01:03;23.80;;;12.32;;
76439;SDS011;65274;44.982;20.060;2023-10-13T14:03:49;30.95;;;11.57;;
76439;SDS011;65274;44.982;20.060;2023-10-13T14:06:19;29.38;;;11.18;;
76439;SDS011;65274;44.982;20.060;2023-10-13T14:12:15;19.77;;;11.40;;
76439;SDS011;65274;44.982;20.060;2023-10-13T14:14:54;16.25;;;10.32;;
76439;SDS011;65274;44.982;20.060;2023-10-13T14:20:25;18.02;;;10.70;;
76439;SDS011;65274;44.982;20.060;2023-10-13T14:22:53;24.75;;;11.02;;
76439;SDS011;65274;44.982;20.060;2023-10-13T14:42:07;19.52;;;11.90;;
76439;SDS011;65274;44.982;20.060;2023-10-13T14:44:34;21.27;;;12.38;;
76439;SDS011;65274;44.982;20.060;2023-10-13T14:47:00;26.37;;;12.13;;
76439;SDS011;65274;44.982;20.060;2023-10-13T14:52:19;21.05;;;11.65;;
76439;SDS011;65274;44.982;20.060;2023-10-13T14:54:48;24.63;;;10.90;;
76439;SDS011;65274;44.982;20.060;2023-10-13T14:57:29;29.05;;;10.80;;
76439;SDS011;65274;44.982;20.060;2023-10-13T14:59:56;16.90;;;11.02;;
76439;SDS011;65274;44.982;20.060;2023-10-13T15:02:22;25.42;;;12.35;;
76439;SDS011;65274;44.982;20.060;2023-10-13T15:08:02;20.58;;;12.43;;
76439;SDS011;65274;44.982;20.060;2023-10-13T15:10:28;22.05;;;11.93;;
76439;SDS011;65274;44.982;20.060;2023-10-13T15:13:00;19.00;;;11.50;;
76439;SDS011;65274;44.982;20.060;2023-10-13T15:15:27;18.17;;;10.35;;
76439;SDS011;65274;44.982;20.060;2023-10-13T15:17:57;23.63;;;11.90;;
76439;SDS011;65274;44.982;20.060;2023-10-13T15:20:23;22.85;;;11.70;;
76439;SDS011;65274;44.982;20.060;2023-10-13T15:22:49;19.80;;;11.90;;
76439;SDS011;65274;44.982;20.060;2023-10-13T15:25:19;22.63;;;12.00;;
76439;SDS011;65274;44.982;20.060;2023-10-13T15:28:00;22.77;;;12.57;;
76439;SDS011;65274;44.982;20.060;2023-10-13T15:30:33;20.77;;;11.45;;
76439;SDS011;65274;44.982;20.060;2023-10-13T15:33:22;19.58;;;10.43;;
76439;SDS011;65274;44.982;20.060;2023-10-13T15:35:50;17.92;;;9.43;;
76439;SDS011;65274;44.982;20.060;2023-10-13T15:38:16;23.70;;;9.73;;
76439;SDS011;65274;44.982;20.060;2023-10-13T15:40:46;17.88;;;9.50;;
76439;SDS011;65274;44.982;20.060;2023-10-13T15:43:12;18.60;;;10.68;;
76439;SDS011;65274;44.982;20.060;2023-10-13T15:45:38;19.83;;;9.82;;
76439;SDS011;65274;44.982;20.060;2023-10-13T15:48:07;25.50;;;11.75;;
76439;SDS011;65274;44.982;20.060;2023-10-13T15:50:36;27.38;;;12.20;;
76439;SDS011;65274;44.982;20.060;2023-10-13T15:53:06;29.98;;;11.02;;
76439;SDS011;65274;44.982;20.060;2023-10-13T15:55:35;20.27;;;10.73;;
76439;SDS011;65274;44.982;20.060;2023-10-13T15:58:03;27.75;;;10.55;;
76439;SDS011;65274;44.982;20.060;2023-10-13T16:00:33;22.48;;;9.88;;
76439;SDS011;65274;44.982;20.060;2023-10-13T16:05:29;23.95;;;10.52;;
76439;SDS011;65274;44.982;20.060;2023-10-13T16:08:02;20.65;;;11.30;;
76439;SDS011;65274;44.982;20.060;2023-10-13T16:10:29;17.60;;;11.25;;
76439;SDS011;65274;44.982;20.060;2023-10-13T16:12:55;25.38;;;12.00;;
76439;SDS011;65274;44.982;20.060;2023-10-13T16:15:27;27.38;;;11.20;;
76439;SDS011;65274;44.982;20.060;2023-10-13T16:17:53;39.55;;;13.32;;
76439;SDS011;65274;44.982;20.060;2023-10-13T16:20:21;30.35;;;11.45;;
76439;SDS011;65274;44.982;20.060;2023-10-13T16:22:49;36.67;;;14.30;;
76439;SDS011;65274;44.982;20.060;2023-10-13T16:25:16;40.55;;;16.23;;
76439;SDS011;65274;44.982;20.060;2023-10-13T16:27:49;31.27;;;12.90;;
76439;SDS011;65274;44.982;20.060;2023-10-13T16:30:15;35.42;;;15.02;;
76439;SDS011;65274;44.982;20.060;2023-10-13T16:32:42;23.45;;;14.05;;
76439;SDS011;65274;44.982;20.060;2023-10-13T16:35:14;32.60;;;14.68;;
76439;SDS011;65274;44.982;20.060;2023-10-13T16:37:46;28.85;;;13.80;;
76439;SDS011;65274;44.982;20.060;2023-10-13T16:40:18;31.55;;;14.77;;
76439;SDS011;65274;44.982;20.060;2023-10-13T16:42:46;29.17;;;12.45;;
76439;SDS011;65274;44.982;20.060;2023-10-13T16:45:12;27.17;;;11.85;;
76439;SDS011;65274;44.982;20.060;2023-10-13T16:47:48;25.33;;;11.27;;
76439;SDS011;65274;44.982;20.060;2023-10-13T16:50:14;31.27;;;12.95;;
76439;SDS011;65274;44.982;20.060;2023-10-13T16:52:41;22.13;;;11.80;;
76439;SDS011;65274;44.982;20.060;2023-10-13T16:55:11;24.42;;;11.57;;
76439;SDS011;65274;44.982;20.060;2023-10-13T16:57:37;24.38;;;12.68;;
76439;SDS011;65274;44.982;20.060;2023-10-13T17:00:13;24.15;;;12.40;;
76439;SDS011;65274;44.982;20.060;2023-10-13T17:02:39;23.45;;;12.07;;
76439;SDS011;65274;44.982;20.060;2023-10-13T17:05:10;28.17;;;11.52;;
76439;SDS011;65274;44.982;20.060;2023-10-13T17:07:38;29.20;;;14.25;;
76439;SDS011;65274;44.982;20.060;2023-10-13T17:10:04;29.98;;;14.10;;
76439;SDS011;65274;44.982;20.060;2023-10-13T17:12:31;24.38;;;11.80;;
76439;SDS011;65274;44.982;20.060;2023-10-13T17:14:58;29.50;;;12.38;;
76439;SDS011;65274;44.982;20.060;2023-10-13T17:17:24;28.65;;;12.93;;
76439;SDS011;65274;44.982;20.060;2023-10-13T17:19:50;27.85;;;14.30;;
76439;SDS011;65274;44.982;20.060;2023-10-13T17:22:17;27.42;;;13.52;;
76439;SDS011;65274;44.982;20.060;2023-10-13T17:24:44;28.77;;;14.23;;
76439;SDS011;65274;44.982;20.060;2023-10-13T17:27:11;26.67;;;13.35;;
76439;SDS011;65274;44.982;20.060;2023-10-13T17:29:37;30.40;;;13.88;;
76439;SDS011;65274;44.982;20.060;2023-10-13T17:32:05;30.25;;;13.80;;
76439;SDS011;65274;44.982;20.060;2023-10-13T17:34:33;34.88;;;13.90;;
76439;SDS011;65274;44.982;20.060;2023-10-13T17:36:59;27.60;;;16.00;;
76439;SDS011;65274;44.982;20.060;2023-10-13T17:39:26;36.40;;;17.77;;
76439;SDS011;65274;44.982;20.060;2023-10-13T17:41:52;33.22;;;17.25;;
76439;SDS011;65274;44.982;20.060;2023-10-13T17:44:19;32.80;;;18.05;;
76439;SDS011;65274;44.982;20.060;2023-10-13T17:46:46;35.97;;;19.60;;
76439;SDS011;65274;44.982;20.060;2023-10-13T17:49:12;45.40;;;22.48;;
76439;SDS011;65274;44.982;20.060;2023-10-13T17:51:38;58.15;;;34.40;;
76439;SDS011;65274;44.982;20.060;2023-10-13T17:54:04;91.63;;;59.95;;
76439;SDS011;65274;44.982;20.060;2023-10-13T17:56:32;124.75;;;83.85;;
76439;SDS011;65274;44.982;20.060;2023-10-13T17:59:01;125.95;;;84.90;;
76439;SDS011;65274;44.982;20.060;2023-10-13T18:01:29;109.32;;;71.57;;
76439;SDS011;65274;44.982;20.060;2023-10-13T18:03:58;100.05;;;64.65;;
76439;SDS011;65274;44.982;20.060;2023-10-13T18:06:31;90.57;;;59.63;;
76439;SDS011;65274;44.982;20.060;2023-10-13T18:09:13;71.63;;;48.15;;
76439;SDS011;65274;44.982;20.060;2023-10-13T18:12:06;76.45;;;51.78;;
76439;SDS011;65274;44.982;20.060;2023-10-13T18:14:53;79.22;;;53.92;;
76439;SDS011;65274;44.982;20.060;2023-10-13T18:17:22;69.00;;;43.45;;
76439;SDS011;65274;44.982;20.060;2023-10-13T18:19:51;59.28;;;41.90;;
76439;SDS011;65274;44.982;20.060;2023-10-13T18:22:19;55.78;;;38.08;;
76439;SDS011;65274;44.982;20.060;2023-10-13T18:24:46;63.10;;;46.58;;
76439;SDS011;65274;44.982;20.060;2023-10-13T18:27:12;51.95;;;35.00;;
76439;SDS011;65274;44.982;20.060;2023-10-13T18:29:38;53.20;;;37.03;;
76439;SDS011;65274;44.982;20.060;2023-10-13T18:32:04;72.15;;;33.75;;
76439;SDS011;65274;44.982;20.060;2023-10-13T18:34:31;53.85;;;34.45;;
76439;SDS011;65274;44.982;20.060;2023-10-13T18:36:58;57.22;;;36.05;;
76439;SDS011;65274;44.982;20.060;2023-10-13T18:39:42;53.95;;;35.92;;
76439;SDS011;65274;44.982;20.060;2023-10-13T18:42:08;50.58;;;34.42;;
76439;SDS011;65274;44.982;20.060;2023-10-13T18:44:34;51.88;;;35.25;;
76439;SDS011;65274;44.982;20.060;2023-10-13T18:47:01;54.60;;;36.13;;
76439;SDS011;65274;44.982;20.060;2023-10-13T18:49:27;51.63;;;34.88;;
76439;SDS011;65274;44.982;20.060;2023-10-13T18:52:14;79.90;;;40.55;;
76439;SDS011;65274;44.982;20.060;2023-10-13T18:54:42;84.03;;;38.03;;
76439;SDS011;65274;44.982;20.060;2023-10-13T18:57:08;58.90;;;38.70;;
76439;SDS011;65274;44.982;20.060;2023-10-13T18:59:39;60.08;;;39.58;;
76439;SDS011;65274;44.982;20.060;2023-10-13T19:02:05;66.50;;;41.22;;
76439;SDS011;65274;44.982;20.060;2023-10-13T19:04:32;62.20;;;40.28;;
76439;SDS011;65274;44.982;20.060;2023-10-13T19:07:16;67.13;;;39.40;;
76439;SDS011;65274;44.982;20.060;2023-10-13T19:09:56;68.78;;;41.45;;
76439;SDS011;65274;44.982;20.060;2023-10-13T19:15:25;65.10;;;41.65;;
76439;SDS011;65274;44.982;20.060;2023-10-13T19:17:54;79.72;;;41.83;;
76439;SDS011;65274;44.982;20.060;2023-10-13T19:20:23;79.95;;;43.72;;
76439;SDS011;65274;44.982;20.060;2023-10-13T19:22:49;71.13;;;41.28;;
76439;SDS011;65274;44.982;20.060;2023-10-13T19:25:18;66.60;;;41.38;;
76439;SDS011;65274;44.982;20.060;2023-10-13T19:30:49;73.93;;;40.08;;
76439;SDS011;65274;44.982;20.060;2023-10-13T19:33:23;68.45;;;38.50;;
76439;SDS011;65274;44.982;20.060;2023-10-13T19:35:56;66.65;;;38.10;;
76439;SDS011;65274;44.982;20.060;2023-10-13T19:38:24;59.47;;;37.28;;
